Time;durP1;ratioP1;P1;durP2;ratioP2;P2;SDS_P1;SDS_P2;PMS_P1;PMS_P2;Temp;Humidity;BMP_temperature;BMP_pressure;BME280_temperature;BME280_humidity;BME280_pressure;Samples;Min_cycle;Max_cycle;Signal;HPM_P1;HPM_P2
2021/03/02 05:22:14;;;;;;;11.85;6.95;;;;;;;;;;6267185;22;887325;-88
2021/03/02 05:24:40;;;;;;;12.80;7.65;;;;;;;;;;6312207;22;20015;-87
2021/03/02 05:27:06;;;;;;;12.60;7.45;;;;;;;;;;6286301;22;20007;-87
2021/03/02 05:29:31;;;;;;;13.10;7.55;;;;;;;;;;6286101;22;20003;-87
2021/03/02 05:31:57;;;;;;;14.35;7.90;;;;;;;;;;6308235;22;20079;-87
2021/03/02 05:34:23;;;;;;;12.77;6.72;;;;;;;;;;6254975;22;20045;-87
2021/03/02 05:36:48;;;;;;;11.52;6.75;;;;;;;;;;6254948;22;20389;-87
2021/03/02 05:39:14;;;;;;;15.13;6.82;;;;;;;;;;6282580;22;19999;-88
2021/03/02 05:41:41;;;;;;;13.10;7.10;;;;;;;;;;6255106;22;20007;-88
2021/03/02 05:44:07;;;;;;;11.50;6.30;;;;;;;;;;6255753;22;20008;-87
2021/03/02 05:46:32;;;;;;;13.07;7.93;;;;;;;;;;6256502;22;19929;-88
2021/03/02 05:48:58;;;;;;;13.18;7.25;;;;;;;;;;6257233;22;19999;-88
2021/03/02 05:51:24;;;;;;;11.38;6.90;;;;;;;;;;6270660;22;20007;-87
2021/03/02 05:53:50;;;;;;;17.27;7.60;;;;;;;;;;6252994;22;20007;-88
2021/03/02 05:56:16;;;;;;;13.48;6.80;;;;;;;;;;6249449;22;20365;-86
2021/03/02 05:58:41;;;;;;;11.98;7.22;;;;;;;;;;6275005;22;20079;-87
2021/03/02 06:01:07;;;;;;;12.15;7.35;;;;;;;;;;6248131;22;20083;-88
2021/03/02 06:03:36;;;;;;;17.02;8.50;;;;;;;;;;6274891;22;19996;-87
2021/03/02 06:06:03;;;;;;;12.77;7.93;;;;;;;;;;6248273;22;20026;-88
2021/03/02 06:08:29;;;;;;;12.85;7.60;;;;;;;;;;6247769;22;20009;-87
2021/03/02 06:10:54;;;;;;;12.30;6.55;;;;;;;;;;6248186;22;20311;-87
2021/03/02 06:13:27;;;;;;;14.00;7.00;;;;;;;;;;6274785;22;20074;-88
2021/03/02 06:15:54;;;;;;;10.98;6.43;;;;;;;;;;6248109;22;20049;-87
2021/03/02 06:18:20;;;;;;;12.75;7.95;;;;;;;;;;6248267;22;20023;-88
2021/03/02 06:20:46;;;;;;;18.38;8.38;;;;;;;;;;6248377;22;20003;-88
2021/03/02 06:23:19;;;;;;;14.13;8.93;;;;;;;;;;6247959;22;20019;-87
2021/03/02 06:25:45;;;;;;;14.20;8.10;;;;;;;;;;6275295;22;20003;-87
2021/03/02 06:28:13;;;;;;;12.57;7.78;;;;;;;;;;6248289;22;20004;-88
2021/03/02 06:30:39;;;;;;;15.20;7.18;;;;;;;;;;6248210;22;20004;-87
2021/03/02 06:33:05;;;;;;;13.52;7.53;;;;;;;;;;6254606;22;20053;-87
2021/03/02 06:35:35;;;;;;;14.25;6.47;;;;;;;;;;6252823;22;20031;-87
2021/03/02 06:38:01;;;;;;;11.35;6.95;;;;;;;;;;6247736;22;20017;-88
2021/03/02 06:40:44;;;;;;;12.48;7.10;;;;;;;;;;6247873;22;20057;-88
2021/03/02 06:43:28;;;;;;;10.88;6.60;;;;;;;;;;6247841;22;20090;-88
2021/03/02 06:45:54;;;;;;;11.98;6.45;;;;;;;;;;6247765;22;20008;-87
2021/03/02 06:48:19;;;;;;;11.88;6.53;;;;;;;;;;6248093;22;20326;-88
2021/03/02 06:50:45;;;;;;;14.75;7.22;;;;;;;;;;6247847;22;20091;-87
2021/03/02 06:53:11;;;;;;;11.80;7.32;;;;;;;;;;6247388;22;19999;-87
2021/03/02 06:55:38;;;;;;;13.55;7.18;;;;;;;;;;6247228;22;20013;-87
2021/03/02 06:58:17;;;;;;;10.85;7.07;;;;;;;;;;6247396;22;20058;-88
2021/03/02 07:00:50;;;;;;;13.40;6.63;;;;;;;;;;6247213;22;20007;-88
2021/03/02 07:03:32;;;;;;;13.88;7.43;;;;;;;;;;6246635;22;20065;-88
2021/03/02 07:06:03;;;;;;;11.23;6.53;;;;;;;;;;6248120;22;20008;-87
2021/03/02 07:08:29;;;;;;;16.73;8.18;;;;;;;;;;6246652;22;20453;-88
2021/03/02 07:10:55;;;;;;;16.80;9.00;;;;;;;;;;6274645;22;19999;-88
2021/03/02 07:13:22;;;;;;;11.77;7.75;;;;;;;;;;6247481;22;20004;-88
2021/03/02 07:15:49;;;;;;;13.00;7.97;;;;;;;;;;6247900;22;20007;-88
2021/03/02 07:18:15;;;;;;;14.52;7.88;;;;;;;;;;6248083;22;20007;-88
2021/03/02 07:20:46;;;;;;;14.30;7.25;;;;;;;;;;6247829;22;20129;-87
2021/03/02 07:23:12;;;;;;;16.15;8.35;;;;;;;;;;6248098;22;20012;-88
2021/03/02 07:25:39;;;;;;;13.05;7.82;;;;;;;;;;6247434;22;20061;-88
2021/03/02 07:28:05;;;;;;;15.38;8.32;;;;;;;;;;6248595;22;20337;-88
2021/03/02 07:30:31;;;;;;;15.27;7.93;;;;;;;;;;6275373;22;19999;-88
2021/03/02 07:32:57;;;;;;;19.33;9.75;;;;;;;;;;6247793;22;20000;-88
2021/03/02 07:35:24;;;;;;;18.52;9.25;;;;;;;;;;6247624;22;20004;-89
2021/03/02 07:37:51;;;;;;;16.27;9.32;;;;;;;;;;6248110;22;20057;-89
2021/03/02 07:40:17;;;;;;;16.40;9.55;;;;;;;;;;6247668;22;20004;-89
2021/03/02 07:42:43;;;;;;;24.08;11.02;;;;;;;;;;6247424;22;20342;-88
2021/03/02 07:45:19;;;;;;;16.75;10.13;;;;;;;;;;6247389;22;20000;-89
2021/03/02 07:47:45;;;;;;;17.33;10.02;;;;;;;;;;6247154;22;20426;-88
2021/03/02 07:50:14;;;;;;;18.85;9.90;;;;;;;;;;6274436;22;20057;-89
2021/03/02 07:52:40;;;;;;;18.95;10.70;;;;;;;;;;6249753;22;20008;-89
2021/03/02 07:55:22;;;;;;;17.95;10.40;;;;;;;;;;6249981;22;20513;-89
2021/03/02 07:57:48;;;;;;;18.42;10.40;;;;;;;;;;6249894;22;20030;-89
2021/03/02 08:00:14;;;;;;;16.13;10.30;;;;;;;;;;6249391;22;20433;-89
2021/03/02 08:02:41;;;;;;;20.67;13.30;;;;;;;;;;6275469;22;20004;-89
2021/03/02 08:05:25;;;;;;;25.75;14.13;;;;;;;;;;6249434;22;19996;-88
2021/03/02 08:07:51;;;;;;;26.92;14.43;;;;;;;;;;6274468;22;20008;-88
2021/03/02 08:10:37;;;;;;;22.48;13.57;;;;;;;;;;6249156;22;19999;-89
2021/03/02 08:13:21;;;;;;;24.48;14.05;;;;;;;;;;6247645;22;20422;-89
2021/03/02 08:15:48;;;;;;;21.10;13.10;;;;;;;;;;6271662;22;20007;-88
2021/03/02 08:18:33;;;;;;;22.90;13.45;;;;;;;;;;6245502;22;20008;-88
2021/03/02 08:25:35;;;;;;;30.17;17.58;;;;;;;;;;5083220;28;20419;-79
2021/03/02 08:28:02;;;;;;;24.27;15.30;;;;;;;;;;5077746;28;20062;-79
2021/03/02 08:30:29;;;;;;;27.42;16.73;;;;;;;;;;5080165;28;20024;-79
2021/03/02 08:32:56;;;;;;;27.38;14.77;;;;;;;;;;5080064;28;20012;-79
2021/03/02 08:35:23;;;;;;;22.00;13.98;;;;;;;;;;5077455;28;20031;-81
2021/03/02 08:37:50;;;;;;;22.38;12.75;;;;;;;;;;5083765;28;20381;-79
2021/03/02 08:42:34;;;;;;;18.85;10.73;;;;;;;;;;5097937;27;20400;-79
2021/03/02 08:45:07;;;;;;;20.00;12.13;;;;;;;;;;5094927;28;20032;-79
2021/03/02 08:47:33;;;;;;;17.40;11.38;;;;;;;;;;5096730;28;20071;-78
2021/03/02 08:49:59;;;;;;;17.75;11.25;;;;;;;;;;5093848;28;20013;-77
2021/03/02 08:52:35;;;;;;;22.88;12.30;;;;;;;;;;5094440;28;20044;-79
2021/03/02 08:55:01;;;;;;;20.90;11.63;;;;;;;;;;5097091;28;20183;-80
2021/03/02 08:57:26;;;;;;;19.00;11.35;;;;;;;;;;5101459;28;20028;-80
2021/03/02 08:59:52;;;;;;;17.77;10.75;;;;;;;;;;5090238;28;20027;-80
2021/03/02 09:02:18;;;;;;;17.67;10.82;;;;;;;;;;5098542;28;20123;-78
2021/03/02 09:04:44;;;;;;;17.10;9.32;;;;;;;;;;5093770;28;20099;-81
2021/03/02 09:07:09;;;;;;;16.05;10.98;;;;;;;;;;5100634;28;20143;-80
2021/03/02 09:09:37;;;;;;;18.23;9.70;;;;;;;;;;5097870;28;20091;-80
2021/03/02 09:12:03;;;;;;;17.83;9.43;;;;;;;;;;5103379;28;20106;-80
2021/03/02 09:14:36;;;;;;;16.02;10.23;;;;;;;;;;5095771;28;20024;-80
2021/03/02 09:17:03;;;;;;;18.35;10.60;;;;;;;;;;5095096;28;20028;-82
2021/03/02 09:19:41;;;;;;;17.77;10.32;;;;;;;;;;5095365;28;20028;-79
2021/03/02 09:22:14;;;;;;;17.30;9.45;;;;;;;;;;5093235;28;20399;-78
2021/03/02 09:24:41;;;;;;;14.93;9.35;;;;;;;;;;5091771;28;20054;-78
2021/03/02 09:27:08;;;;;;;18.13;9.55;;;;;;;;;;5092282;28;20031;-78
2021/03/02 09:29:35;;;;;;;15.48;9.00;;;;;;;;;;5092699;28;20024;-80
2021/03/02 09:34:19;;;;;;;15.30;10.07;;;;;;;;;;5110565;27;20449;-78
2021/03/02 09:36:45;;;;;;;18.80;8.88;;;;;;;;;;5091411;28;20032;-78
2021/03/02 09:39:18;;;;;;;15.93;9.02;;;;;;;;;;5095114;28;20042;-79
2021/03/02 09:41:45;;;;;;;15.30;8.13;;;;;;;;;;5090934;28;20073;-79
2021/03/02 09:44:20;;;;;;;14.65;8.80;;;;;;;;;;5089166;28;20543;-78
2021/03/02 09:46:46;;;;;;;15.77;9.20;;;;;;;;;;5087156;28;20054;-78
2021/03/02 09:49:12;;;;;;;15.27;9.23;;;;;;;;;;5089131;28;20032;-77
2021/03/02 09:51:44;;;;;;;14.98;8.82;;;;;;;;;;5087916;28;20191;-80
2021/03/02 09:54:13;;;;;;;19.13;9.27;;;;;;;;;;5086795;28;20119;-79
2021/03/02 09:56:39;;;;;;;19.38;9.43;;;;;;;;;;5089738;28;20394;-78
2021/03/02 09:59:06;;;;;;;19.85;9.82;;;;;;;;;;5089922;28;20021;-77
2021/03/02 10:01:33;;;;;;;14.82;8.65;;;;;;;;;;5088971;28;20034;-78
2021/03/02 10:04:05;;;;;;;17.02;9.10;;;;;;;;;;5088628;28;20050;-78
2021/03/02 10:06:30;;;;;;;16.02;9.30;;;;;;;;;;5095935;28;20067;-80
2021/03/02 10:08:56;;;;;;;14.80;9.18;;;;;;;;;;5088448;28;20035;-80
2021/03/02 10:11:22;;;;;;;14.00;8.45;;;;;;;;;;5089156;28;20040;-79
2021/03/02 10:13:51;;;;;;;14.63;8.68;;;;;;;;;;5096858;28;20016;-80
2021/03/02 10:16:24;;;;;;;17.02;9.20;;;;;;;;;;5100956;28;20031;-81
2021/03/02 10:18:49;;;;;;;14.15;8.35;;;;;;;;;;5098281;28;20049;-80
2021/03/02 10:21:16;;;;;;;15.82;10.35;;;;;;;;;;5098758;28;20020;-80
2021/03/02 10:23:46;;;;;;;15.65;9.35;;;;;;;;;;5101509;28;20718;-80
2021/03/02 10:26:12;;;;;;;13.70;8.50;;;;;;;;;;5095345;28;20438;-80
2021/03/02 10:28:38;;;;;;;14.50;8.20;;;;;;;;;;5096968;28;20024;-80
2021/03/02 10:31:04;;;;;;;15.70;8.45;;;;;;;;;;5094357;28;21585;-79
2021/03/02 10:33:29;;;;;;;16.63;9.18;;;;;;;;;;5088985;28;20107;-79
2021/03/02 10:35:56;;;;;;;13.00;8.10;;;;;;;;;;5090544;28;20095;-79
2021/03/02 10:38:21;;;;;;;14.65;8.15;;;;;;;;;;5100736;28;20069;-79
2021/03/02 10:40:47;;;;;;;11.30;8.05;;;;;;;;;;5099375;28;20047;-79
2021/03/02 10:43:13;;;;;;;18.13;9.80;;;;;;;;;;5092179;28;20050;-79
2021/03/02 10:45:39;;;;;;;12.48;7.55;;;;;;;;;;5073852;28;20795;-80
2021/03/02 10:48:05;;;;;;;15.57;8.27;;;;;;;;;;5075616;28;20028;-79
2021/03/02 10:50:30;;;;;;;13.30;7.90;;;;;;;;;;5073170;28;20090;-79
2021/03/02 10:52:56;;;;;;;11.05;7.35;;;;;;;;;;5074862;28;20079;-80
2021/03/02 10:55:22;;;;;;;11.75;7.30;;;;;;;;;;5074812;28;20033;-80
2021/03/02 10:57:48;;;;;;;10.73;7.55;;;;;;;;;;5072581;28;20096;-80
2021/03/02 11:00:14;;;;;;;13.95;8.10;;;;;;;;;;5079050;28;20115;-80
2021/03/02 11:02:40;;;;;;;14.13;7.13;;;;;;;;;;5077803;28;20380;-83
2021/03/02 11:05:06;;;;;;;12.07;7.97;;;;;;;;;;5072484;28;20119;-79
2021/03/02 11:07:32;;;;;;;14.70;9.15;;;;;;;;;;5077947;28;20051;-81
2021/03/02 11:09:57;;;;;;;13.07;8.50;;;;;;;;;;5072795;28;20461;-80
2021/03/02 11:12:23;;;;;;;16.17;8.60;;;;;;;;;;5067268;28;20035;-79
2021/03/02 11:14:49;;;;;;;11.48;8.00;;;;;;;;;;5068691;28;20783;-81
2021/03/02 11:17:15;;;;;;;12.80;7.60;;;;;;;;;;5071787;28;20021;-80
2021/03/02 11:19:40;;;;;;;12.02;7.60;;;;;;;;;;5069728;28;20103;-80
2021/03/02 11:22:06;;;;;;;15.07;7.90;;;;;;;;;;5068153;28;20202;-81
2021/03/02 11:24:31;;;;;;;12.18;7.22;;;;;;;;;;5071857;28;20030;-80
2021/03/02 11:26:57;;;;;;;11.55;7.57;;;;;;;;;;5072011;28;20111;-81
2021/03/02 11:29:23;;;;;;;11.75;7.28;;;;;;;;;;5074177;28;20034;-80
2021/03/02 11:31:48;;;;;;;13.20;7.80;;;;;;;;;;5069050;28;20432;-80
2021/03/02 11:34:14;;;;;;;12.02;7.65;;;;;;;;;;5067194;28;20494;-80
2021/03/02 11:36:40;;;;;;;12.70;8.00;;;;;;;;;;5069078;28;20358;-80
2021/03/02 11:39:05;;;;;;;17.58;8.82;;;;;;;;;;5067008;28;20318;-80
2021/03/02 11:41:31;;;;;;;12.77;8.27;;;;;;;;;;5071345;28;20107;-81
2021/03/02 11:43:57;;;;;;;16.55;8.50;;;;;;;;;;5071346;28;20022;-81
2021/03/02 11:46:22;;;;;;;14.57;8.48;;;;;;;;;;5072304;28;20555;-79
2021/03/02 11:48:48;;;;;;;12.90;8.18;;;;;;;;;;5074891;28;20027;-81
2021/03/02 11:51:14;;;;;;;12.23;7.60;;;;;;;;;;5068880;28;20096;-80
2021/03/02 11:53:41;;;;;;;15.93;8.57;;;;;;;;;;5102054;22;20064;-82
2021/03/02 13:41:56;;;;;;;13.63;7.07;;;;;;;;;;5092535;28;20055;-84
2021/03/02 13:57:01;;;;;;;13.70;8.05;;;;;;;;;;5100196;28;20036;-83
2021/03/02 13:59:43;;;;;;;15.77;8.02;;;;;;;;;;5103774;28;20091;-84
2021/03/02 14:02:12;;;;;;;15.40;8.43;;;;;;;;;;5091738;28;20032;-84
2021/03/02 14:04:38;;;;;;;14.93;7.43;;;;;;;;;;5091942;28;20012;-83
2021/03/02 14:07:04;;;;;;;11.60;7.20;;;;;;;;;;5098967;28;20031;-83
2021/03/02 14:09:31;;;;;;;15.18;8.90;;;;;;;;;;5103126;28;20039;-83
2021/03/02 14:11:57;;;;;;;19.63;8.70;;;;;;;;;;5103023;28;20047;-83
2021/03/02 14:14:23;;;;;;;10.02;6.13;;;;;;;;;;5098925;28;20032;-83
2021/03/02 14:16:49;;;;;;;16.48;8.38;;;;;;;;;;5101783;28;20091;-83
2021/03/02 14:19:15;;;;;;;16.15;8.18;;;;;;;;;;5096850;28;20587;-83
2021/03/02 14:21:41;;;;;;;12.77;7.57;;;;;;;;;;5093764;28;20031;-83
2021/03/02 14:26:26;;;;;;;14.07;7.93;;;;;;;;;;5068073;28;20445;-82
2021/03/02 14:28:51;;;;;;;12.45;8.07;;;;;;;;;;5068498;28;20021;-82
2021/03/02 14:31:17;;;;;;;16.52;8.77;;;;;;;;;;5069962;28;20536;-82
2021/03/02 14:33:44;;;;;;;15.95;8.15;;;;;;;;;;5042852;28;20512;-83
2021/03/02 14:36:10;;;;;;;14.98;8.32;;;;;;;;;;5038680;28;20017;-82
2021/03/02 14:38:36;;;;;;;15.75;8.95;;;;;;;;;;5033557;28;20033;-82
2021/03/02 14:41:03;;;;;;;11.35;7.55;;;;;;;;;;5050058;28;20556;-81
2021/03/02 14:43:32;;;;;;;17.80;8.95;;;;;;;;;;5053285;28;20127;-81
2021/03/02 14:46:00;;;;;;;13.45;8.07;;;;;;;;;;5050261;28;20043;-81
2021/03/02 14:48:27;;;;;;;12.77;7.78;;;;;;;;;;5038435;28;20024;-81
2021/03/02 14:50:54;;;;;;;14.85;8.30;;;;;;;;;;5051943;28;20493;-83
2021/03/02 14:53:20;;;;;;;16.65;8.52;;;;;;;;;;5049296;28;20025;-84
2021/03/02 14:55:53;;;;;;;14.55;9.27;;;;;;;;;;5037487;28;20017;-83
2021/03/02 14:58:20;;;;;;;17.90;9.10;;;;;;;;;;5056332;28;20447;-83
2021/03/02 15:00:47;;;;;;;23.17;9.73;;;;;;;;;;5047132;28;20365;-83
2021/03/02 15:03:16;;;;;;;17.17;8.52;;;;;;;;;;5045044;28;20024;-84
2021/03/02 15:05:42;;;;;;;22.92;9.25;;;;;;;;;;5038073;28;20381;-84
2021/03/02 15:08:08;;;;;;;15.73;8.52;;;;;;;;;;5036637;28;20091;-84
2021/03/02 15:10:34;;;;;;;16.33;9.30;;;;;;;;;;5037491;28;20033;-83
2021/03/02 15:13:01;;;;;;;14.13;7.88;;;;;;;;;;5052991;28;20079;-83
2021/03/02 15:15:28;;;;;;;12.20;8.02;;;;;;;;;;5036957;28;20033;-83
2021/03/02 15:20:55;;;;;;;14.80;8.20;;;;;;;;;;5049050;28;20040;-84
2021/03/02 15:29:25;;;;;;;15.05;8.40;;;;;;;;;;5052038;28;20520;-84
2021/03/02 15:34:45;;;;;;;;;;;;;;;;;;5034360;28;20344;-84
2021/03/02 15:44:26;;;;;;;17.08;8.98;;;;;;;;;;4912278;29;20044;-86
2021/03/02 15:53:19;;;;;;;14.90;8.55;;;;;;;;;;4991575;28;20112;-86
2021/03/02 16:05:44;;;;;;;20.02;9.68;;;;;;;;;;4961810;28;20042;-85
2021/03/02 16:08:33;;;;;;;19.30;9.25;;;;;;;;;;4961303;28;20086;-86
2021/03/02 16:11:00;;;;;;;15.60;8.90;;;;;;;;;;4941284;29;21404;-87
2021/03/02 16:13:49;;;;;;;13.48;8.43;;;;;;;;;;5004120;28;20060;-87
2021/03/02 16:16:38;;;;;;;13.90;7.55;;;;;;;;;;5030405;28;20405;-86
2021/03/02 16:19:14;;;;;;;13.23;7.38;;;;;;;;;;5014569;28;20401;-86
2021/03/02 16:21:49;;;;;;;16.15;7.85;;;;;;;;;;5046662;28;20112;-87
2021/03/02 16:24:25;;;;;;;12.30;8.13;;;;;;;;;;5035821;28;20049;-86
2021/03/02 16:39:38;;;;;;;10.35;5.93;;;;;;;;;;4950846;27;4402716;-85
2021/03/02 16:42:06;;;;;;;11.38;6.13;;;;;;;;;;5069435;28;20044;-85
2021/03/02 16:44:35;;;;;;;8.93;5.30;;;;;;;;;;5065699;28;20078;-84
2021/03/02 16:47:16;;;;;;;11.63;5.88;;;;;;;;;;5048199;28;20544;-85
2021/03/02 16:49:51;;;;;;;15.18;5.97;;;;;;;;;;5045113;28;20025;-85
2021/03/02 16:52:24;;;;;;;10.55;6.55;;;;;;;;;;5041293;28;20033;-85
2021/03/02 16:54:55;;;;;;;12.70;7.60;;;;;;;;;;5038649;28;20541;-85
2021/03/02 16:57:24;;;;;;;10.48;6.38;;;;;;;;;;5064884;28;20027;-85
2021/03/02 16:59:51;;;;;;;9.27;6.35;;;;;;;;;;5039849;28;20037;-85
2021/03/02 17:02:21;;;;;;;13.65;6.75;;;;;;;;;;5046122;28;20020;-85
2021/03/02 17:04:52;;;;;;;13.38;6.85;;;;;;;;;;5064603;28;20024;-85
2021/03/02 17:07:21;;;;;;;;;;;;;;;;;;5065855;28;20108;-86
2021/03/02 17:10:31;;;;;;;;;;;;;;;;;;;;;
2021/03/02 17:12:57;;;;;;;9.60;5.95;;;;;;;;;;5063025;28;20025;-83
2021/03/02 17:16:04;;;;;;;10.95;8.35;;;;;;;;;;5039135;28;20025;-82
2021/03/02 17:24:55;;;;;;;11.07;5.55;;;;;;;;;;5060589;28;20035;-82
2021/03/02 17:27:51;;;;;;;13.88;6.10;;;;;;;;;;5061112;28;20102;-82
2021/03/02 17:30:50;;;;;;;9.73;5.10;;;;;;;;;;4967201;28;20045;-82
2021/03/02 17:46:24;;;;;;;11.10;6.53;;;;;;;;;;6351372;22;20082;-83
2021/03/02 18:03:13;;;;;;;13.13;6.88;;;;;;;;;;4919343;27;5679125;-83
2021/03/02 18:05:52;;;;;;;11.65;6.00;;;;;;;;;;5053314;28;20044;-83
2021/03/02 18:08:25;;;;;;;13.98;5.72;;;;;;;;;;5090678;28;20494;-83
2021/03/02 18:11:24;;;;;;;14.18;6.88;;;;;;;;;;5095475;28;20105;-83
2021/03/02 18:13:55;;;;;;;12.40;6.13;;;;;;;;;;5071615;28;20024;-83
2021/03/02 18:16:34;;;;;;;11.65;6.60;;;;;;;;;;5067807;28;20446;-83
2021/03/02 18:19:00;;;;;;;12.02;6.45;;;;;;;;;;5084331;28;20029;-83
2021/03/02 18:21:31;;;;;;;12.93;6.85;;;;;;;;;;5071639;28;20383;-83
2021/03/02 18:24:11;;;;;;;10.85;6.28;;;;;;;;;;5067448;28;20062;-83
2021/03/02 18:26:58;;;;;;;;;;;;;;;;;;;;;
2021/03/02 18:29:25;;;;;;;8.85;5.55;;;;;;;;;;5083073;28;20444;-83
2021/03/02 18:31:51;;;;;;;14.65;6.82;;;;;;;;;;5092629;28;20024;-83
2021/03/02 18:34:17;;;;;;;10.20;5.90;;;;;;;;;;5100283;28;20032;-83
2021/03/02 18:36:43;;;;;;;12.57;6.30;;;;;;;;;;5074142;28;20186;-82
2021/03/02 18:39:10;;;;;;;9.25;5.97;;;;;;;;;;5070698;28;20025;-83
2021/03/02 18:41:36;;;;;;;13.27;7.05;;;;;;;;;;5057659;28;20029;-82
2021/03/02 18:44:02;;;;;;;12.48;6.65;;;;;;;;;;5086321;28;20715;-83
2021/03/02 18:46:28;;;;;;;12.48;6.45;;;;;;;;;;5057722;28;20059;-83
2021/03/02 18:48:53;;;;;;;11.65;6.72;;;;;;;;;;5079971;28;20055;-83
2021/03/02 18:51:19;;;;;;;10.63;6.53;;;;;;;;;;5067141;28;20559;-82
2021/03/02 18:53:45;;;;;;;11.27;6.90;;;;;;;;;;5068605;28;20017;-82
2021/03/02 18:56:11;;;;;;;13.48;6.35;;;;;;;;;;5056737;28;20055;-83
2021/03/02 18:58:37;;;;;;;12.30;6.30;;;;;;;;;;5050238;28;20031;-82
2021/03/02 19:01:02;;;;;;;10.95;6.38;;;;;;;;;;5059188;28;20032;-82
2021/03/02 19:03:28;;;;;;;11.93;6.53;;;;;;;;;;5044173;28;20115;-82
2021/03/02 19:05:54;;;;;;;13.95;5.43;;;;;;;;;;5051771;28;20547;-82
2021/03/02 19:08:20;;;;;;;11.00;5.80;;;;;;;;;;5059015;28;19931;-81
2021/03/02 19:10:45;;;;;;;12.63;6.82;;;;;;;;;;5055900;28;20028;-82
2021/03/02 19:13:11;;;;;;;8.88;5.80;;;;;;;;;;5046001;28;20028;-82
2021/03/02 19:15:37;;;;;;;13.77;6.63;;;;;;;;;;5055183;28;20024;-82
2021/03/02 19:18:03;;;;;;;10.55;5.93;;;;;;;;;;5072248;28;20398;-83
2021/03/02 19:20:29;;;;;;;9.02;5.68;;;;;;;;;;5060789;28;20020;-82
2021/03/02 19:22:56;;;;;;;12.57;7.00;;;;;;;;;;5051917;28;20032;-82
2021/03/02 19:25:21;;;;;;;12.95;6.25;;;;;;;;;;5043656;28;20036;-82
2021/03/02 19:27:47;;;;;;;11.93;5.95;;;;;;;;;;5063262;28;20028;-82
2021/03/02 19:30:13;;;;;;;10.98;5.72;;;;;;;;;;5062968;28;20043;-82
2021/03/02 19:32:39;;;;;;;13.10;6.78;;;;;;;;;;5054972;28;20020;-82
2021/03/02 19:35:05;;;;;;;15.45;7.10;;;;;;;;;;5056492;28;20020;-82
2021/03/02 19:37:31;;;;;;;9.18;5.95;;;;;;;;;;5056826;28;20542;-83
2021/03/02 19:39:57;;;;;;;12.88;6.05;;;;;;;;;;5060488;28;20486;-83
2021/03/02 19:42:24;;;;;;;12.73;6.75;;;;;;;;;;5051348;28;20106;-82
2021/03/02 19:44:50;;;;;;;13.23;6.43;;;;;;;;;;5057537;28;20058;-82
2021/03/02 19:47:15;;;;;;;9.80;6.20;;;;;;;;;;5042984;28;20033;-82
2021/03/02 19:49:41;;;;;;;12.13;5.95;;;;;;;;;;5054035;28;20023;-83
2021/03/02 19:52:07;;;;;;;8.98;6.07;;;;;;;;;;5063769;28;20126;-82
2021/03/02 19:54:33;;;;;;;11.90;7.30;;;;;;;;;;5082669;28;20115;-82
2021/03/02 19:56:59;;;;;;;12.90;6.90;;;;;;;;;;5065762;28;20497;-82
2021/03/02 19:59:24;;;;;;;12.15;6.45;;;;;;;;;;5073874;28;20035;-82
2021/03/02 20:01:50;;;;;;;12.70;6.25;;;;;;;;;;5059900;28;20024;-83
2021/03/02 20:04:16;;;;;;;12.90;6.60;;;;;;;;;;5056280;28;20028;-82
2021/03/02 20:06:43;;;;;;;20.25;7.25;;;;;;;;;;5047518;28;20500;-82
2021/03/02 20:09:09;;;;;;;14.55;7.47;;;;;;;;;;5047956;28;20077;-82
2021/03/02 20:11:35;;;;;;;18.25;7.38;;;;;;;;;;5050164;28;20035;-81
2021/03/02 20:14:01;;;;;;;16.30;7.55;;;;;;;;;;5055958;28;20404;-83
2021/03/02 20:16:26;;;;;;;11.77;7.30;;;;;;;;;;5060555;28;20039;-82
2021/03/02 20:18:54;;;;;;;14.85;7.90;;;;;;;;;;5060146;28;20024;-82
2021/03/02 20:21:20;;;;;;;16.10;7.20;;;;;;;;;;5057023;28;20024;-82
2021/03/02 20:23:46;;;;;;;11.45;6.63;;;;;;;;;;5063554;28;20025;-81
2021/03/02 20:26:11;;;;;;;13.90;7.68;;;;;;;;;;5062298;28;20023;-82
2021/03/02 20:28:37;;;;;;;12.13;6.63;;;;;;;;;;5052340;28;20028;-83
2021/03/02 20:31:03;;;;;;;16.95;6.95;;;;;;;;;;5081515;28;20027;-83
2021/03/02 20:33:28;;;;;;;13.60;6.88;;;;;;;;;;5052793;28;20020;-82
2021/03/02 20:35:54;;;;;;;16.00;7.35;;;;;;;;;;5060579;28;20024;-83
2021/03/02 20:38:20;;;;;;;13.23;7.82;;;;;;;;;;5063581;28;20021;-82
2021/03/02 20:40:45;;;;;;;12.27;6.90;;;;;;;;;;5067352;28;20035;-82
2021/03/02 20:46:14;;;;;;;15.63;7.55;;;;;;;;;;5014939;28;20843;-82
2021/03/02 20:48:40;;;;;;;14.48;7.03;;;;;;;;;;5050946;28;20036;-83
2021/03/02 20:51:06;;;;;;;14.98;7.57;;;;;;;;;;5080437;28;20035;-82
2021/03/02 20:53:31;;;;;;;15.38;7.07;;;;;;;;;;5083924;28;20028;-82
2021/03/02 20:55:57;;;;;;;12.70;6.80;;;;;;;;;;5061007;28;20031;-82
2021/03/02 20:58:23;;;;;;;10.82;7.13;;;;;;;;;;5083144;28;20387;-82
2021/03/02 21:00:49;;;;;;;10.85;6.43;;;;;;;;;;5057830;28;20017;-82
2021/03/02 21:03:14;;;;;;;13.10;6.50;;;;;;;;;;5069218;28;20028;-81
2021/03/02 21:05:40;;;;;;;9.95;5.50;;;;;;;;;;5071597;28;20054;-83
2021/03/02 21:08:06;;;;;;;13.52;6.55;;;;;;;;;;5054396;28;20028;-82
2021/03/02 21:10:31;;;;;;;12.70;6.70;;;;;;;;;;5057776;28;20143;-83
2021/03/02 21:12:57;;;;;;;14.25;7.50;;;;;;;;;;5062950;28;20028;-82
2021/03/02 21:17:57;;;;;;;15.90;7.22;;;;;;;;;;5092273;27;20487;-83
2021/03/02 21:20:22;;;;;;;15.88;7.22;;;;;;;;;;5069471;28;20032;-83
2021/03/02 21:22:48;;;;;;;14.45;8.13;;;;;;;;;;5073551;28;20754;-83
2021/03/02 21:25:14;;;;;;;15.20;9.55;;;;;;;;;;5073224;28;20078;-83
2021/03/02 21:27:41;;;;;;;18.90;11.20;;;;;;;;;;5076082;28;20024;-83
2021/03/02 21:30:08;;;;;;;14.60;8.82;;;;;;;;;;5075371;28;20058;-83
2021/03/02 21:32:34;;;;;;;16.75;9.45;;;;;;;;;;5073351;28;20025;-82
2021/03/02 21:34:59;;;;;;;16.85;9.45;;;;;;;;;;5072010;28;20029;-83
2021/03/02 21:37:25;;;;;;;15.13;8.30;;;;;;;;;;5057103;28;20381;-83
2021/03/02 21:39:51;;;;;;;19.10;8.52;;;;;;;;;;5071150;28;20031;-83
2021/03/02 21:42:17;;;;;;;16.05;9.63;;;;;;;;;;5073341;28;20394;-83
2021/03/02 21:44:43;;;;;;;19.33;11.57;;;;;;;;;;5070689;28;20024;-83
2021/03/02 21:47:08;;;;;;;24.23;13.65;;;;;;;;;;5071228;28;20114;-82
2021/03/02 21:49:34;;;;;;;20.05;11.63;;;;;;;;;;5073870;28;20030;-83
2021/03/02 21:52:00;;;;;;;22.80;12.25;;;;;;;;;;5075951;28;20028;-82
2021/03/02 21:54:26;;;;;;;25.13;13.00;;;;;;;;;;5077179;28;20024;-83
2021/03/02 21:56:51;;;;;;;31.23;16.08;;;;;;;;;;5074369;28;20043;-82
2021/03/02 21:59:17;;;;;;;28.90;14.73;;;;;;;;;;5072459;28;20028;-83
2021/03/02 22:01:43;;;;;;;30.30;15.48;;;;;;;;;;5075127;28;19942;-83
2021/03/02 22:04:08;;;;;;;28.13;16.00;;;;;;;;;;5070939;28;20025;-83
2021/03/02 22:06:34;;;;;;;36.38;18.92;;;;;;;;;;5071738;28;20143;-83
2021/03/02 22:09:00;;;;;;;29.95;16.67;;;;;;;;;;5074456;28;20103;-83
2021/03/02 22:11:25;;;;;;;23.45;13.93;;;;;;;;;;5074158;28;20107;-83
2021/03/02 22:13:51;;;;;;;26.00;13.75;;;;;;;;;;5076754;28;20020;-82
2021/03/02 22:18:36;;;;;;;24.65;13.18;;;;;;;;;;5152849;27;20394;-83
2021/03/02 22:21:02;;;;;;;23.33;12.88;;;;;;;;;;5127343;28;20031;-83
2021/03/02 22:23:27;;;;;;;24.90;13.45;;;;;;;;;;5121596;28;20092;-82
2021/03/02 22:25:53;;;;;;;26.48;14.63;;;;;;;;;;5119993;27;20031;-83
2021/03/02 22:28:19;;;;;;;25.83;14.65;;;;;;;;;;5122958;28;20035;-82
2021/03/02 22:30:45;;;;;;;22.77;15.20;;;;;;;;;;5118611;28;20544;-83
2021/03/02 22:33:10;;;;;;;29.58;14.85;;;;;;;;;;5120289;28;20525;-83
2021/03/02 22:37:55;;;;;;;26.05;12.57;;;;;;;;;;5049107;27;20392;-81
2021/03/02 22:40:20;;;;;;;21.33;12.65;;;;;;;;;;5038810;28;20033;-82
2021/03/02 22:42:46;;;;;;;21.85;11.32;;;;;;;;;;5046001;28;20024;-82
2021/03/02 22:45:12;;;;;;;22.25;11.45;;;;;;;;;;5041297;28;20032;-83
2021/03/02 22:47:38;;;;;;;21.92;10.15;;;;;;;;;;5034240;28;20551;-83
